createdAt,value
2023-04-16T00:00:03.869Z,4.74
2023-04-16T00:01:12.610Z,4.79
2023-04-16T00:02:14.995Z,4.82
2023-04-16T00:03:17.048Z,4.76
2023-04-16T00:04:18.912Z,4.76
2023-04-16T00:05:20.565Z,4.76
2023-04-16T00:06:23.004Z,4.72
2023-04-16T00:07:24.755Z,4.75
2023-04-16T00:08:26.546Z,4.72
2023-04-16T00:09:28.129Z,4.66
2023-04-16T00:10:29.713Z,4.64
2023-04-16T00:11:31.341Z,4.59
2023-04-16T00:12:33.133Z,4.53
2023-04-16T00:13:35.553Z,4.51
2023-04-16T00:14:37.172Z,4.53
2023-04-16T00:15:38.789Z,4.53
2023-04-16T00:16:40.466Z,4.54
2023-04-16T00:17:42.217Z,4.62
2023-04-16T00:18:43.863Z,4.56
2023-04-16T00:19:45.587Z,4.55
2023-04-16T00:20:48.388Z,4.54
2023-04-16T00:21:49.967Z,4.60
2023-04-16T00:22:51.618Z,4.70
2023-04-16T00:23:53.337Z,4.68
2023-04-16T00:24:54.959Z,4.66
2023-04-16T00:25:59.802Z,4.61
2023-04-16T00:27:01.704Z,4.59
2023-04-16T00:28:05.031Z,4.58
2023-04-16T00:29:07.255Z,4.59
2023-04-16T00:30:09.476Z,4.57
2023-04-16T00:31:11.138Z,4.57
2023-04-16T00:32:12.781Z,4.59
2023-04-16T00:33:14.453Z,4.59
2023-04-16T00:34:16.072Z,4.58
2023-04-16T00:35:17.806Z,4.59
2023-04-16T00:36:19.364Z,4.60
2023-04-16T00:37:21.080Z,4.70
2023-04-16T00:38:22.796Z,4.66
2023-04-16T00:39:24.493Z,4.63
2023-04-16T00:40:29.274Z,4.59
2023-04-16T00:41:30.895Z,4.61
2023-04-16T00:42:32.570Z,4.60
2023-04-16T00:43:34.801Z,4.61
2023-04-16T00:44:36.444Z,4.59
2023-04-16T00:45:38.505Z,4.63
2023-04-16T00:46:41.846Z,4.71
2023-04-16T00:47:43.865Z,4.64
2023-04-16T00:48:45.839Z,4.66
2023-04-16T00:49:47.604Z,4.68
2023-04-16T00:50:49.241Z,4.68
2023-04-16T00:51:51.114Z,4.79
2023-04-16T00:52:52.954Z,4.72
2023-04-16T00:53:54.631Z,4.81
2023-04-16T00:54:56.480Z,4.74
2023-04-16T00:55:58.822Z,4.73
2023-04-16T00:57:01.639Z,4.74
2023-04-16T00:58:03.575Z,4.70
2023-04-16T00:59:05.500Z,4.72
2023-04-16T01:00:08.509Z,4.71
2023-04-16T01:01:10.092Z,4.69
2023-04-16T01:02:12.618Z,4.69
2023-04-16T01:03:14.453Z,4.65
2023-04-16T01:04:16.321Z,4.78
2023-04-16T01:05:19.613Z,4.69
2023-04-16T01:06:21.598Z,4.68
2023-04-16T01:07:23.875Z,4.74
2023-04-16T01:08:25.681Z,4.77
2023-04-16T01:09:27.341Z,4.70
2023-04-16T01:10:28.868Z,4.68
2023-04-16T01:11:30.421Z,4.69
2023-04-16T01:12:32.507Z,4.72
2023-04-16T01:13:35.073Z,4.79
2023-04-16T01:14:37.312Z,4.71
2023-04-16T01:15:38.973Z,4.74
2023-04-16T01:16:40.532Z,4.72
2023-04-16T01:17:42.036Z,4.76
2023-04-16T01:18:43.612Z,4.69
2023-04-16T01:19:45.265Z,4.68
2023-04-16T01:20:48.014Z,4.69
2023-04-16T01:21:49.603Z,4.69
2023-04-16T01:22:51.094Z,4.70
2023-04-16T01:23:52.623Z,4.71
2023-04-16T01:24:54.165Z,4.68
2023-04-16T01:25:55.806Z,4.71
2023-04-16T01:27:00.073Z,4.72
2023-04-16T01:28:01.575Z,4.73
2023-04-16T01:29:03.162Z,4.73
2023-04-16T01:30:05.218Z,4.67
2023-04-16T01:31:16.949Z,4.59
2023-04-16T01:32:33.339Z,4.56
2023-04-16T01:33:35.024Z,4.60
2023-04-16T01:34:36.692Z,4.55
2023-04-16T01:35:39.037Z,4.63
2023-04-16T01:36:40.539Z,4.68
2023-04-16T01:37:45.077Z,4.65
2023-04-16T01:38:47.053Z,4.63
2023-04-16T01:39:48.609Z,4.66
2023-04-16T01:40:50.264Z,4.63
2023-04-16T01:41:51.843Z,4.58
2023-04-16T01:42:53.455Z,4.57
2023-04-16T01:43:55.000Z,4.65
2023-04-16T01:44:58.893Z,4.57
2023-04-16T01:46:20.348Z,4.55
2023-04-16T01:47:22.744Z,4.53
2023-04-16T01:48:24.312Z,4.51
2023-04-16T01:49:28.197Z,4.59
2023-04-16T01:50:29.976Z,4.57
2023-04-16T01:51:32.235Z,4.58
2023-04-16T01:52:33.791Z,4.60
2023-04-16T01:53:37.104Z,4.56
2023-04-16T01:54:39.003Z,4.54
2023-04-16T01:55:40.578Z,4.60
2023-04-16T01:56:42.096Z,4.54
2023-04-16T01:57:43.934Z,4.52
2023-04-16T01:58:47.781Z,4.53
2023-04-16T01:59:51.222Z,4.49
2023-04-16T02:00:52.963Z,4.49
2023-04-16T02:01:54.616Z,4.57
2023-04-16T02:02:56.357Z,4.53
2023-04-16T02:04:01.700Z,4.53
2023-04-16T02:05:03.621Z,4.54
2023-04-16T02:06:05.260Z,4.50
2023-04-16T02:07:07.433Z,4.49
2023-04-16T02:08:09.208Z,4.50
2023-04-16T02:09:10.892Z,4.47
2023-04-16T02:10:13.670Z,4.49
2023-04-16T02:11:15.898Z,4.47
2023-04-16T02:12:17.904Z,4.48
2023-04-16T02:13:19.579Z,4.47
2023-04-16T02:14:25.456Z,4.62
2023-04-16T02:15:27.070Z,4.67
2023-04-16T02:16:29.340Z,4.62
2023-04-16T02:17:37.173Z,4.60
2023-04-16T02:18:43.157Z,4.62
2023-04-16T02:19:45.708Z,4.65
2023-04-16T02:20:47.925Z,4.62
2023-04-16T02:21:51.543Z,4.55
2023-04-16T02:22:53.127Z,4.55
2023-04-16T02:23:57.449Z,4.55
2023-04-16T02:25:02.475Z,4.57
2023-04-16T02:26:04.143Z,4.54
2023-04-16T02:27:05.777Z,4.49
2023-04-16T02:28:09.168Z,4.55
2023-04-16T02:29:14.789Z,4.56
2023-04-16T02:30:19.817Z,4.70
2023-04-16T02:31:22.722Z,4.60
2023-04-16T02:32:24.399Z,4.55
2023-04-16T02:33:26.671Z,4.67
2023-04-16T02:34:39.865Z,4.65
2023-04-16T02:35:41.704Z,4.58
2023-04-16T02:36:43.345Z,4.54
2023-04-16T02:37:44.846Z,4.64
2023-04-16T02:38:46.816Z,4.68
2023-04-16T02:39:49.773Z,4.59
2023-04-16T02:40:51.315Z,4.59
2023-04-16T02:41:52.842Z,4.58
2023-04-16T02:42:55.089Z,4.62
2023-04-16T02:43:57.209Z,4.58
2023-04-16T02:44:58.720Z,4.56
2023-04-16T02:46:00.373Z,4.64
2023-04-16T02:47:02.441Z,4.63
2023-04-16T02:48:04.214Z,4.66
2023-04-16T02:49:05.853Z,4.62
2023-04-16T02:50:08.009Z,4.59
2023-04-16T02:51:11.732Z,4.68
2023-04-16T02:52:15.092Z,4.62
2023-04-16T02:53:17.235Z,4.69
2023-04-16T02:54:18.786Z,4.74
2023-04-16T02:55:20.386Z,4.73
2023-04-16T02:56:21.893Z,4.64
2023-04-16T02:57:23.432Z,4.63
2023-04-16T02:58:26.262Z,4.62
2023-04-16T02:59:27.769Z,4.65
2023-04-16T03:00:29.320Z,4.64
2023-04-16T03:01:31.014Z,4.67
2023-04-16T03:02:32.792Z,4.56
2023-04-16T03:03:34.462Z,4.69
2023-04-16T03:04:36.138Z,4.63
2023-04-16T03:05:40.184Z,4.57
2023-04-16T03:06:41.898Z,4.56
2023-04-16T03:07:43.506Z,4.60
2023-04-16T03:08:45.355Z,4.57
2023-04-16T03:09:47.149Z,4.65
2023-04-16T03:10:48.695Z,4.59
2023-04-16T03:11:50.246Z,4.58
2023-04-16T03:12:51.815Z,4.53
2023-04-16T03:13:53.833Z,4.50
2023-04-16T03:14:55.360Z,4.51
2023-04-16T03:15:56.868Z,4.56
2023-04-16T03:16:58.804Z,4.61
2023-04-16T03:18:00.777Z,4.66
2023-04-16T03:19:05.075Z,4.60
2023-04-16T03:20:07.415Z,4.59
2023-04-16T03:21:08.922Z,4.67
2023-04-16T03:22:10.422Z,4.58
2023-04-16T03:23:11.912Z,4.53
2023-04-16T03:24:13.576Z,4.60
2023-04-16T03:25:16.447Z,4.62
2023-04-16T03:26:17.961Z,4.62
2023-04-16T03:27:19.734Z,4.61
2023-04-16T03:28:21.443Z,4.63
2023-04-16T03:29:23.099Z,4.61
2023-04-16T03:30:24.666Z,4.55
2023-04-16T03:31:26.228Z,4.57
2023-04-16T03:32:29.596Z,4.66
2023-04-16T03:33:31.206Z,4.57
2023-04-16T03:34:32.825Z,4.55
2023-04-16T03:35:34.665Z,4.63
2023-04-16T03:36:37.020Z,4.60
2023-04-16T03:37:38.892Z,4.63
2023-04-16T03:38:40.553Z,4.64
2023-04-16T03:39:42.457Z,4.53
2023-04-16T03:40:45.730Z,4.54
2023-04-16T03:41:49.684Z,4.66
2023-04-16T03:42:51.342Z,4.72
2023-04-16T03:43:52.828Z,4.64
2023-04-16T03:44:54.447Z,4.57
2023-04-16T03:45:57.171Z,4.65
2023-04-16T03:46:59.384Z,4.65
2023-04-16T03:48:01.214Z,4.72
2023-04-16T03:49:02.846Z,4.74
2023-04-16T03:50:04.719Z,4.76
2023-04-16T03:51:06.241Z,4.71
2023-04-16T03:52:08.743Z,4.73
2023-04-16T03:53:10.391Z,4.64
2023-04-16T03:54:12.344Z,4.68
2023-04-16T03:55:14.033Z,4.70
2023-04-16T03:56:16.138Z,4.69
2023-04-16T03:57:17.768Z,4.72
2023-04-16T03:58:20.798Z,4.68
2023-04-16T03:59:22.718Z,4.72
2023-04-16T04:00:24.296Z,4.73
2023-04-16T04:01:34.551Z,4.70
2023-04-16T04:02:36.558Z,4.72
2023-04-16T04:03:38.961Z,4.71
2023-04-16T04:04:40.948Z,4.63
2023-04-16T04:05:43.803Z,4.63
2023-04-16T04:06:48.094Z,4.65
2023-04-16T04:07:50.096Z,4.68
2023-04-16T04:08:51.622Z,4.63
2023-04-16T04:09:53.235Z,4.68
2023-04-16T04:10:55.456Z,4.64
2023-04-16T04:11:58.811Z,4.63
2023-04-16T04:13:01.324Z,4.64
2023-04-16T04:14:02.734Z,4.70
2023-04-16T04:15:04.654Z,4.66
2023-04-16T04:16:06.421Z,4.63
2023-04-16T04:17:08.902Z,4.65
2023-04-16T04:18:10.662Z,4.69
2023-04-16T04:19:12.299Z,4.64
2023-04-16T04:20:14.042Z,4.65
2023-04-16T04:21:18.988Z,4.70
2023-04-16T04:22:20.583Z,4.69
2023-04-16T04:23:22.121Z,4.73
2023-04-16T04:24:24.399Z,4.70
2023-04-16T04:25:25.944Z,4.71
2023-04-16T04:26:27.753Z,4.70
2023-04-16T04:27:29.304Z,4.69
2023-04-16T04:28:31.718Z,4.76
2023-04-16T04:29:35.179Z,4.72
2023-04-16T04:30:36.785Z,4.72
2023-04-16T04:31:39.541Z,4.81
2023-04-16T04:32:41.333Z,4.69
2023-04-16T04:33:44.330Z,4.74
2023-04-16T04:34:47.237Z,4.70
2023-04-16T04:35:48.814Z,4.84
2023-04-16T04:36:50.604Z,4.81
2023-04-16T04:37:52.114Z,4.78
2023-04-16T04:38:55.128Z,4.82
2023-04-16T04:39:57.216Z,4.75
2023-04-16T04:40:59.482Z,4.70
2023-04-16T04:42:03.616Z,4.85
2023-04-16T04:43:05.336Z,4.86
2023-04-16T04:44:07.843Z,4.78
2023-04-16T04:45:10.313Z,4.74
2023-04-16T04:46:11.984Z,4.80
2023-04-16T04:47:15.324Z,4.82
2023-04-16T04:48:17.247Z,4.85
2023-04-16T04:49:19.068Z,4.78
2023-04-16T04:50:21.639Z,4.75
2023-04-16T04:51:23.017Z,4.85
2023-04-16T04:52:24.601Z,4.73
2023-04-16T04:53:26.233Z,4.85
2023-04-16T04:54:28.899Z,4.88
2023-04-16T04:55:30.500Z,4.91
2023-04-16T04:56:33.236Z,4.94
2023-04-16T04:57:34.854Z,5.06
2023-04-16T04:58:37.218Z,4.95
2023-04-16T04:59:38.746Z,4.91
2023-04-16T05:00:40.374Z,4.95
2023-04-16T05:01:42.000Z,4.88
2023-04-16T05:02:43.724Z,4.89
2023-04-16T05:03:45.391Z,5.04
2023-04-16T05:04:47.020Z,5.03
2023-04-16T05:05:48.569Z,4.97
2023-04-16T05:06:50.045Z,4.95
2023-04-16T05:07:51.615Z,5.03
2023-04-16T05:08:53.126Z,4.96
2023-04-16T05:09:54.648Z,5.01
2023-04-16T05:10:56.162Z,4.98
2023-04-16T05:11:57.744Z,4.96
2023-04-16T05:12:59.362Z,4.98
2023-04-16T05:14:00.960Z,5.01
2023-04-16T05:15:02.498Z,5.02
2023-04-16T05:16:04.223Z,5.08
2023-04-16T05:17:06.102Z,5.02
2023-04-16T05:18:07.697Z,5.04
2023-04-16T05:19:09.452Z,5.15
2023-04-16T05:20:11.242Z,5.11
2023-04-16T05:21:12.864Z,5.22
2023-04-16T05:22:14.411Z,5.19
2023-04-16T05:23:15.962Z,5.14
2023-04-16T05:24:17.594Z,5.12
2023-04-16T05:25:19.178Z,5.10
2023-04-16T05:26:20.811Z,5.05
2023-04-16T05:27:22.363Z,5.12
2023-04-16T05:28:23.964Z,5.22
2023-04-16T05:29:25.890Z,5.21
2023-04-16T05:30:27.403Z,5.17
2023-04-16T05:31:29.022Z,5.20
2023-04-16T05:32:30.574Z,5.17
2023-04-16T05:33:32.158Z,5.18
2023-04-16T05:34:33.736Z,5.20
2023-04-16T05:35:35.328Z,5.22
2023-04-16T05:36:36.930Z,5.22
2023-04-16T05:37:38.479Z,5.33
2023-04-16T05:38:40.231Z,5.28
2023-04-16T05:39:41.746Z,5.31
2023-04-16T05:40:43.287Z,5.26
2023-04-16T05:41:44.854Z,5.40
2023-04-16T05:42:46.372Z,5.48
2023-04-16T05:43:47.912Z,5.50
2023-04-16T05:44:51.152Z,5.47
2023-04-16T05:45:52.716Z,5.41
2023-04-16T05:46:54.484Z,5.50
2023-04-16T05:47:56.060Z,5.49
2023-04-16T05:48:57.729Z,5.53
2023-04-16T05:49:59.271Z,5.58
2023-04-16T05:51:02.144Z,5.57
2023-04-16T05:52:05.219Z,5.49
2023-04-16T05:53:08.253Z,5.50
2023-04-16T05:54:09.816Z,5.56
2023-04-16T05:55:11.378Z,5.51
2023-04-16T05:56:12.918Z,5.56
2023-04-16T05:57:14.577Z,5.57
2023-04-16T05:58:16.181Z,5.60
2023-04-16T05:59:17.725Z,5.67
2023-04-16T06:00:19.289Z,5.57
2023-04-16T06:01:21.403Z,5.59
2023-04-16T06:02:23.204Z,5.52
2023-04-16T06:03:24.945Z,5.51
2023-04-16T06:04:26.562Z,5.52
2023-04-16T06:05:28.620Z,5.60
2023-04-16T06:06:30.214Z,5.63
2023-04-16T06:07:31.676Z,5.63
2023-04-16T06:08:33.224Z,5.76
2023-04-16T06:09:34.756Z,5.76
2023-04-16T06:10:36.324Z,5.68
2023-04-16T06:11:37.884Z,5.67
2023-04-16T06:12:39.401Z,5.65
2023-04-16T06:13:42.885Z,5.58
2023-04-16T06:14:44.423Z,5.51
2023-04-16T06:15:45.955Z,5.62
2023-04-16T06:16:47.561Z,5.65
2023-04-16T06:17:49.997Z,5.64
2023-04-16T06:18:51.416Z,5.68
2023-04-16T06:19:53.092Z,5.65
2023-04-16T06:20:54.876Z,5.59
2023-04-16T06:21:59.419Z,5.60
2023-04-16T06:23:00.970Z,5.55
2023-04-16T06:24:02.545Z,5.50
2023-04-16T06:25:04.414Z,5.54
2023-04-16T06:26:06.229Z,5.54
2023-04-16T06:27:07.752Z,5.51
2023-04-16T06:28:09.354Z,5.48
2023-04-16T06:29:11.763Z,5.44
2023-04-16T06:30:14.235Z,5.51
2023-04-16T06:31:15.839Z,5.60
2023-04-16T06:32:17.540Z,5.57
2023-04-16T06:33:19.227Z,5.61
2023-04-16T06:34:20.842Z,5.58
2023-04-16T06:35:22.476Z,5.56
2023-04-16T06:36:24.004Z,5.56
2023-04-16T06:37:25.527Z,5.47
2023-04-16T06:38:27.003Z,5.45
2023-04-16T06:39:28.506Z,5.49
2023-04-16T06:40:30.102Z,5.37
2023-04-16T06:41:31.702Z,5.26
2023-04-16T06:42:33.265Z,5.18
2023-04-16T06:43:34.860Z,5.23
2023-04-16T06:44:36.500Z,5.21
2023-04-16T06:45:38.099Z,5.21
2023-04-16T06:46:39.938Z,5.26
2023-04-16T06:47:41.571Z,5.33
2023-04-16T06:48:43.121Z,5.33
2023-04-16T06:49:44.629Z,5.21
2023-04-16T06:50:46.166Z,5.30
2023-04-16T06:51:47.745Z,5.30
2023-04-16T06:52:49.279Z,5.28
2023-04-16T06:53:51.143Z,5.30
2023-04-16T06:54:52.756Z,5.36
2023-04-16T06:55:54.321Z,5.31
2023-04-16T06:56:55.962Z,5.23
2023-04-16T06:57:57.471Z,5.24
2023-04-16T06:59:00.895Z,5.28
2023-04-16T07:00:03.387Z,5.29
2023-04-16T07:01:05.648Z,5.32
2023-04-16T07:02:09.525Z,5.35
2023-04-16T07:03:11.290Z,5.29
2023-04-16T07:04:13.050Z,5.31
2023-04-16T07:05:14.650Z,5.38
2023-04-16T07:06:16.191Z,5.28
2023-04-16T07:07:18.011Z,5.34
2023-04-16T07:08:19.510Z,5.32
2023-04-16T07:09:21.114Z,5.40
2023-04-16T07:10:22.671Z,5.40
2023-04-16T07:11:27.577Z,5.38
2023-04-16T07:12:29.119Z,5.34
2023-04-16T07:13:30.658Z,5.35
2023-04-16T07:14:32.295Z,5.35
2023-04-16T07:15:33.824Z,5.38
2023-04-16T07:16:37.620Z,5.39
2023-04-16T07:17:39.307Z,5.35
2023-04-16T07:18:40.951Z,5.44
2023-04-16T07:19:42.550Z,5.41
2023-04-16T07:20:44.080Z,5.33
2023-04-16T07:21:46.121Z,5.39
2023-04-16T07:22:47.758Z,5.39
2023-04-16T07:23:49.271Z,5.29
2023-04-16T07:24:50.869Z,5.33
2023-04-16T07:25:52.578Z,5.39
2023-04-16T07:26:54.106Z,5.33
2023-04-16T07:27:55.602Z,5.37
2023-04-16T07:28:57.160Z,5.39
2023-04-16T07:29:58.765Z,5.42
2023-04-16T07:31:00.595Z,5.39
2023-04-16T07:32:02.243Z,5.44
2023-04-16T07:33:04.162Z,5.37
2023-04-16T07:34:05.802Z,5.37
2023-04-16T07:35:07.585Z,5.41
2023-04-16T07:36:09.129Z,5.49
2023-04-16T07:37:10.812Z,5.53
2023-04-16T07:38:12.472Z,5.38
2023-04-16T07:39:13.956Z,5.40
2023-04-16T07:40:15.809Z,5.50
2023-04-16T07:41:17.355Z,5.57
2023-04-16T07:42:18.973Z,5.51
2023-04-16T07:43:20.725Z,5.53
2023-04-16T07:44:22.403Z,5.56
2023-04-16T07:45:24.006Z,5.53
2023-04-16T07:46:28.343Z,5.57
2023-04-16T07:47:34.884Z,5.63
2023-04-16T07:48:36.432Z,5.68
2023-04-16T07:49:38.073Z,5.76
2023-04-16T07:50:39.676Z,5.71
2023-04-16T07:51:41.272Z,5.72
2023-04-16T07:52:43.670Z,5.83
2023-04-16T07:53:45.167Z,5.83
2023-04-16T07:54:47.072Z,5.84
2023-04-16T07:55:49.587Z,5.90
2023-04-16T07:56:51.070Z,5.93
2023-04-16T07:57:52.762Z,5.92
2023-04-16T07:58:54.401Z,5.87
2023-04-16T07:59:56.079Z,5.92
2023-04-16T08:00:58.349Z,5.99
2023-04-16T08:02:00.102Z,6.03
2023-04-16T08:03:02.090Z,6.12
2023-04-16T08:04:03.945Z,6.20
2023-04-16T08:05:06.179Z,6.10
2023-04-16T08:06:07.754Z,6.16
2023-04-16T08:07:09.514Z,6.26
2023-04-16T08:08:11.112Z,6.46
2023-04-16T08:09:12.736Z,6.45
2023-04-16T08:10:14.326Z,6.52
2023-04-16T08:11:15.872Z,6.43
2023-04-16T08:12:17.796Z,6.59
2023-04-16T08:13:19.322Z,6.70
2023-04-16T08:14:20.856Z,6.82
2023-04-16T08:15:22.425Z,6.76
2023-04-16T08:16:24.117Z,6.83
2023-04-16T08:17:25.865Z,6.85
2023-04-16T08:18:27.553Z,6.89
2023-04-16T08:19:29.104Z,6.99
2023-04-16T08:20:31.406Z,7.02
2023-04-16T08:21:33.673Z,6.98
2023-04-16T08:22:35.639Z,7.04
2023-04-16T08:23:37.181Z,7.08
2023-04-16T08:24:38.876Z,7.02
2023-04-16T08:25:40.559Z,6.90
2023-04-16T08:26:42.129Z,6.98
2023-04-16T08:27:43.708Z,6.99
2023-04-16T08:28:45.454Z,6.95
2023-04-16T08:29:48.151Z,6.88
2023-04-16T08:30:49.684Z,6.77
2023-04-16T08:31:51.410Z,6.74
2023-04-16T08:32:53.251Z,6.74
2023-04-16T08:33:54.886Z,6.75
2023-04-16T08:34:57.177Z,6.78
2023-04-16T08:35:58.761Z,6.74
2023-04-16T08:37:00.459Z,6.88
2023-04-16T08:38:04.708Z,6.73
2023-04-16T08:39:06.280Z,6.79
2023-04-16T08:40:08.409Z,6.71
2023-04-16T08:41:12.894Z,6.60
2023-04-16T08:42:23.850Z,6.65
2023-04-16T08:43:26.039Z,6.65
2023-04-16T08:44:30.350Z,6.77
2023-04-16T08:45:34.990Z,6.80
2023-04-16T08:46:37.989Z,6.76
2023-04-16T08:47:40.099Z,6.85
2023-04-16T08:48:43.428Z,6.92
2023-04-16T08:49:46.222Z,6.93
2023-04-16T08:50:49.523Z,6.91
2023-04-16T08:51:55.348Z,6.90
2023-04-16T08:53:00.531Z,6.78
2023-04-16T08:54:09.441Z,6.96
2023-04-16T08:55:14.404Z,6.88
2023-04-16T08:56:17.569Z,6.86
2023-04-16T08:57:20.488Z,6.80
2023-04-16T08:58:22.808Z,6.87
2023-04-16T08:59:25.864Z,6.95
2023-04-16T09:00:28.510Z,6.91
2023-04-16T09:01:30.308Z,6.99
2023-04-16T09:02:32.053Z,6.94
2023-04-16T09:03:36.298Z,7.12
2023-04-16T09:04:38.600Z,7.17
2023-04-16T09:05:40.423Z,7.34
2023-04-16T09:06:42.574Z,7.44
2023-04-16T09:07:48.411Z,7.29
2023-04-16T09:08:49.984Z,7.27
2023-04-16T09:09:52.195Z,7.21
2023-04-16T09:10:55.559Z,7.29
2023-04-16T09:11:57.170Z,7.47
2023-04-16T09:12:58.821Z,7.49
2023-04-16T09:14:00.893Z,7.35
2023-04-16T09:15:03.417Z,7.34
2023-04-16T09:16:06.195Z,7.30
2023-04-16T09:17:09.084Z,7.51
2023-04-16T09:18:12.095Z,7.57
2023-04-16T09:19:14.871Z,7.59
2023-04-16T09:20:19.887Z,7.80
2023-04-16T09:21:23.921Z,7.91
2023-04-16T09:22:25.786Z,7.89
2023-04-16T09:23:27.328Z,8.01
2023-04-16T09:24:29.102Z,7.94
2023-04-16T09:25:37.279Z,7.98
2023-04-16T09:26:39.001Z,7.92
2023-04-16T09:27:40.742Z,7.91
2023-04-16T09:28:45.285Z,7.89
2023-04-16T09:29:46.845Z,7.92
2023-04-16T09:30:48.421Z,7.97
2023-04-16T09:32:07.052Z,7.75
2023-04-16T09:33:22.237Z,7.60
2023-04-16T09:34:24.127Z,7.60
2023-04-16T09:35:25.791Z,7.69
2023-04-16T09:36:28.129Z,7.70
2023-04-16T09:37:30.856Z,7.69
2023-04-16T09:38:52.573Z,7.73
2023-04-16T09:39:59.033Z,7.66
2023-04-16T09:41:10.577Z,7.72
2023-04-16T09:42:12.357Z,7.74
2023-04-16T09:43:15.781Z,7.73
2023-04-16T09:44:17.406Z,7.84
2023-04-16T09:45:19.023Z,7.83
2023-04-16T09:46:20.715Z,7.91
2023-04-16T09:47:23.676Z,8.01
2023-04-16T09:48:30.019Z,8.04
2023-04-16T09:49:34.630Z,8.04
2023-04-16T09:50:36.248Z,7.85
2023-04-16T09:51:38.733Z,7.91
2023-04-16T09:52:40.298Z,7.94
2023-04-16T09:53:42.016Z,7.99
2023-04-16T09:54:47.663Z,7.99
2023-04-16T09:55:49.307Z,8.07
2023-04-16T09:56:50.929Z,8.12
2023-04-16T09:58:00.058Z,8.03
2023-04-16T09:59:01.753Z,7.96
2023-04-16T10:00:09.059Z,8.03
2023-04-16T10:01:12.554Z,8.06
2023-04-16T10:02:15.637Z,8.04
2023-04-16T10:03:18.216Z,8.03
2023-04-16T10:04:20.488Z,8.03
2023-04-16T10:05:22.175Z,8.00
2023-04-16T10:06:26.791Z,8.00
2023-04-16T10:07:30.283Z,7.95
2023-04-16T10:08:31.936Z,7.89
2023-04-16T10:09:38.352Z,7.90
2023-04-16T10:10:40.482Z,8.00
2023-04-16T10:11:42.357Z,7.98
2023-04-16T10:12:43.923Z,7.98
2023-04-16T10:13:46.351Z,7.93
2023-04-16T10:14:49.970Z,7.94
2023-04-16T10:15:52.119Z,7.81
2023-04-16T10:16:54.630Z,7.74
2023-04-16T10:17:56.106Z,7.80
2023-04-16T10:18:58.687Z,7.81
2023-04-16T10:20:01.492Z,7.77
2023-04-16T10:21:03.409Z,7.97
2023-04-16T10:22:05.695Z,8.01
2023-04-16T10:23:07.365Z,8.06
2023-04-16T10:24:09.624Z,7.93
2023-04-16T10:25:11.566Z,8.13
2023-04-16T10:26:13.626Z,8.10
2023-04-16T10:27:16.611Z,8.14
2023-04-16T10:28:18.898Z,8.10
2023-04-16T10:29:21.598Z,8.26
2023-04-16T10:30:23.348Z,8.25
2023-04-16T10:31:25.573Z,8.14
2023-04-16T10:32:28.687Z,8.20
2023-04-16T10:33:32.767Z,8.08
2023-04-16T10:34:35.175Z,8.28
2023-04-16T10:35:40.409Z,8.50
2023-04-16T10:36:42.069Z,8.56
2023-04-16T10:37:45.075Z,8.62
2023-04-16T10:38:48.571Z,8.51
2023-04-16T10:39:52.548Z,8.60
2023-04-16T10:41:02.989Z,8.43
2023-04-16T10:42:12.135Z,8.56
2023-04-16T10:43:19.232Z,8.44
2023-04-16T10:44:20.884Z,8.44
2023-04-16T10:45:32.813Z,8.30
2023-04-16T10:46:38.847Z,8.38
2023-04-16T10:47:40.706Z,8.39
2023-04-16T10:48:49.845Z,8.30
2023-04-16T10:49:52.430Z,8.25
2023-04-16T10:50:57.818Z,8.33
2023-04-16T10:52:03.686Z,8.35
2023-04-16T10:53:27.993Z,8.41
2023-04-16T10:54:30.868Z,8.35
2023-04-16T10:55:33.850Z,8.45
2023-04-16T10:56:36.501Z,8.61
2023-04-16T10:57:38.201Z,8.56
2023-04-16T10:58:40.296Z,8.44
2023-04-16T10:59:43.266Z,8.55
2023-04-16T11:00:51.261Z,8.59
2023-04-16T11:01:54.889Z,8.66
2023-04-16T11:02:56.740Z,8.65
2023-04-16T11:04:01.927Z,8.62
2023-04-16T11:05:04.083Z,8.36
2023-04-16T11:06:17.434Z,8.38
2023-04-16T11:07:20.690Z,8.47
2023-04-16T11:08:23.051Z,8.56
2023-04-16T11:09:47.654Z,8.58
2023-04-16T11:10:49.411Z,8.54
2023-04-16T11:11:51.066Z,8.53
2023-04-16T11:12:53.561Z,8.48
2023-04-16T11:13:56.305Z,8.62
2023-04-16T11:15:14.251Z,8.47
2023-04-16T11:16:16.992Z,8.62
2023-04-16T11:17:19.737Z,8.62
2023-04-16T11:18:21.433Z,8.79
2023-04-16T11:19:23.070Z,8.87
2023-04-16T11:20:26.549Z,8.83
2023-04-16T11:21:28.642Z,9.03
2023-04-16T11:22:30.362Z,9.03
2023-04-16T11:23:46.312Z,8.83
2023-04-16T11:24:48.067Z,8.81
2023-04-16T11:25:55.857Z,8.85
2023-04-16T11:26:57.707Z,8.99
2023-04-16T11:27:59.475Z,9.12
2023-04-16T11:29:01.333Z,9.05
2023-04-16T11:30:05.420Z,9.00
2023-04-16T11:31:12.300Z,9.04
2023-04-16T11:32:22.031Z,8.91
2023-04-16T11:33:25.341Z,8.88
2023-04-16T11:34:27.043Z,8.88
2023-04-16T11:35:28.725Z,9.03
2023-04-16T11:36:43.379Z,8.78
2023-04-16T11:37:45.178Z,8.97
2023-04-16T11:38:47.419Z,9.01
2023-04-16T11:39:52.838Z,9.11
2023-04-16T11:40:55.134Z,9.09
2023-04-16T11:41:56.832Z,9.16
2023-04-16T11:43:17.470Z,9.35
2023-04-16T11:44:28.177Z,9.39
2023-04-16T11:45:29.837Z,9.62
2023-04-16T11:46:40.830Z,9.76
2023-04-16T11:47:55.154Z,9.73
2023-04-16T11:48:56.940Z,9.81
2023-04-16T11:49:59.002Z,9.79
2023-04-16T11:51:00.816Z,9.64
2023-04-16T11:52:02.408Z,9.57
2023-04-16T11:53:06.367Z,9.33
2023-04-16T11:54:11.681Z,9.44
2023-04-16T11:55:13.779Z,9.47
2023-04-16T11:56:15.924Z,9.42
2023-04-16T11:57:32.876Z,9.54
2023-04-16T11:58:34.510Z,9.66
2023-04-16T11:59:37.043Z,9.80
2023-04-16T12:00:38.628Z,9.74
2023-04-16T12:01:45.433Z,9.62
2023-04-16T12:02:51.866Z,9.69
2023-04-16T12:04:02.344Z,9.75
2023-04-16T12:05:30.343Z,9.63
2023-04-16T12:06:32.835Z,9.60
2023-04-16T12:07:44.571Z,9.57
2023-04-16T12:08:46.148Z,9.61
2023-04-16T12:09:47.756Z,9.55
2023-04-16T12:10:56.062Z,9.48
2023-04-16T12:11:57.926Z,9.25
2023-04-16T12:13:19.801Z,9.28
2023-04-16T12:14:21.630Z,9.10
2023-04-16T12:15:23.338Z,9.11
2023-04-16T12:16:26.234Z,9.06
2023-04-16T12:17:27.931Z,9.06
2023-04-16T12:18:29.619Z,8.87
2023-04-16T12:19:31.492Z,8.71
2023-04-16T12:20:40.299Z,8.60
2023-04-16T12:21:42.703Z,8.56
2023-04-16T12:22:49.497Z,8.60
2023-04-16T12:23:53.723Z,8.68
2023-04-16T12:25:06.872Z,8.74
2023-04-16T12:26:10.616Z,8.65
2023-04-16T12:27:12.964Z,8.66
2023-04-16T12:28:16.511Z,8.73
2023-04-16T12:29:19.713Z,8.85
2023-04-16T12:30:26.359Z,8.82
2023-04-16T12:31:38.146Z,8.73
2023-04-16T12:32:40.935Z,8.66
2023-04-16T12:33:42.727Z,8.75
2023-04-16T12:34:51.636Z,8.69
2023-04-16T12:35:53.300Z,8.65
2023-04-16T12:37:09.608Z,8.65
2023-04-16T12:38:12.029Z,8.59
2023-04-16T12:39:13.976Z,8.58
2023-04-16T12:40:18.192Z,8.60
2023-04-16T12:41:19.786Z,8.61
2023-04-16T12:42:21.594Z,8.74
2023-04-16T12:43:23.312Z,8.70
2023-04-16T12:44:27.827Z,8.75
2023-04-16T12:45:29.469Z,8.75
2023-04-16T12:46:31.310Z,8.82
2023-04-16T12:47:33.122Z,8.87
2023-04-16T12:48:34.911Z,8.88
2023-04-16T12:49:37.453Z,8.95
2023-04-16T12:50:39.747Z,8.87
2023-04-16T12:51:41.597Z,8.88
2023-04-16T12:52:43.413Z,8.90
2023-04-16T12:53:45.042Z,8.99
2023-04-16T12:54:46.624Z,9.10
2023-04-16T12:55:48.328Z,9.21
2023-04-16T12:56:49.916Z,9.26
2023-04-16T12:57:53.004Z,9.27
2023-04-16T12:58:54.811Z,9.24
2023-04-16T12:59:57.174Z,9.15
2023-04-16T13:00:59.823Z,9.06
2023-04-16T13:02:02.591Z,9.10
2023-04-16T13:03:04.743Z,9.12
2023-04-16T13:04:07.743Z,9.13
2023-04-16T13:05:09.683Z,9.10
2023-04-16T13:06:11.410Z,9.11
2023-04-16T13:07:12.992Z,9.10
2023-04-16T13:08:14.644Z,9.02
2023-04-16T13:09:16.409Z,8.86
2023-04-16T13:10:18.093Z,8.92
2023-04-16T13:11:20.233Z,8.89
2023-04-16T13:12:21.853Z,8.88
2023-04-16T13:13:23.492Z,8.94
2023-04-16T13:14:26.248Z,8.95
2023-04-16T13:15:27.891Z,9.00
2023-04-16T13:16:29.501Z,9.06
2023-04-16T13:17:31.277Z,9.01
2023-04-16T13:18:33.029Z,9.09
2023-04-16T13:19:34.692Z,9.21
2023-04-16T13:20:36.419Z,9.28
2023-04-16T13:21:38.081Z,9.34
2023-04-16T13:22:39.765Z,9.32
2023-04-16T13:23:41.438Z,9.39
2023-04-16T13:24:43.010Z,9.54
2023-04-16T13:25:44.637Z,9.53
2023-04-16T13:26:46.222Z,9.68
2023-04-16T13:27:47.820Z,9.69
2023-04-16T13:28:49.453Z,9.68
2023-04-16T13:29:51.084Z,9.68
2023-04-16T13:30:53.163Z,9.77
2023-04-16T13:31:54.885Z,9.87
2023-04-16T13:32:56.878Z,9.85
2023-04-16T13:33:58.537Z,9.73
2023-04-16T13:35:00.186Z,9.70
2023-04-16T13:36:01.889Z,9.70
2023-04-16T13:37:03.537Z,9.69
2023-04-16T13:38:06.028Z,9.66
2023-04-16T13:39:10.780Z,9.54
2023-04-16T13:40:12.634Z,9.51
2023-04-16T13:41:14.248Z,9.50
2023-04-16T13:42:16.853Z,9.41
2023-04-16T13:43:19.047Z,9.28
2023-04-16T13:44:20.733Z,9.29
2023-04-16T13:45:22.423Z,9.25
2023-04-16T13:46:24.154Z,9.21
2023-04-16T13:47:26.250Z,9.24
2023-04-16T13:48:28.295Z,9.23
2023-04-16T13:49:31.457Z,9.20
2023-04-16T13:50:33.872Z,9.25
2023-04-16T13:51:36.086Z,9.19
2023-04-16T13:52:37.745Z,9.21
2023-04-16T13:53:39.329Z,9.18
2023-04-16T13:54:41.489Z,9.09
2023-04-16T13:55:54.067Z,9.09